Time;durP1;ratioP1;P1;durP2;ratioP2;P2;SDS_P1;SDS_P2;PMS_P1;PMS_P2;Temp;Humidity;BMP_temperature;BMP_pressure;BME280_temperature;BME280_humidity;BME280_pressure;Samples;Min_cycle;Max_cycle;Signal;HPM_P1;HPM_P2
2020/12/04 00:00:42;;;;;;;34.25;31.45;;;4.10;78.10;;;;;;4965453;28;20219;-76
2020/12/04 00:03:09;;;;;;;33.90;31.35;;;4.10;77.00;;;;;;4970507;28;20290;-76
2020/12/04 00:05:35;;;;;;;34.20;31.58;;;4.00;76.80;;;;;;4972591;28;20206;-75
2020/12/04 00:08:01;;;;;;;33.30;30.70;;;4.00;77.40;;;;;;4968167;28;20191;-76
2020/12/04 00:10:28;;;;;;;35.00;32.08;;;4.10;76.20;;;;;;4972851;28;20282;-76
2020/12/04 00:12:54;;;;;;;34.08;31.35;;;4.00;80.70;;;;;;4970429;28;20200;-76
2020/12/04 00:15:21;;;;;;;35.55;32.53;;;4.00;76.70;;;;;;4964193;28;20653;-75
2020/12/04 00:17:48;;;;;;;34.65;31.85;;;4.00;75.30;;;;;;4956895;28;20283;-75
2020/12/04 00:20:14;;;;;;;35.80;32.83;;;4.20;73.60;;;;;;4967211;28;20223;-75
2020/12/04 00:22:40;;;;;;;35.00;32.20;;;4.10;74.20;;;;;;4959572;28;20207;-76
2020/12/04 00:25:07;;;;;;;34.63;31.92;;;4.10;74.70;;;;;;4959623;28;20210;-76
2020/12/04 00:27:33;;;;;;;33.42;30.92;;;4.10;74.40;;;;;;4972993;28;20221;-75
2020/12/04 00:29:59;;;;;;;33.28;30.70;;;4.10;76.10;;;;;;4969467;28;20215;-75
2020/12/04 00:32:26;;;;;;;33.67;30.90;;;4.10;77.30;;;;;;4972516;28;20565;-75
2020/12/04 00:34:53;;;;;;;32.97;30.50;;;4.00;79.50;;;;;;4970157;28;20199;-75
2020/12/04 00:37:19;;;;;;;32.08;29.58;;;4.00;76.80;;;;;;4967436;28;20220;-75
2020/12/04 00:39:45;;;;;;;33.03;30.42;;;4.00;78.10;;;;;;4958822;28;20210;-75
2020/12/04 00:42:12;;;;;;;32.42;29.85;;;4.00;82.10;;;;;;4964962;28;20681;-76
2020/12/04 00:44:38;;;;;;;33.40;30.77;;;4.00;79.40;;;;;;4971047;28;20203;-75
2020/12/04 00:47:04;;;;;;;150.60;39.53;;;4.00;77.00;;;;;;4971692;28;20233;-76
2020/12/04 00:49:32;;;;;;;32.83;30.20;;;4.00;78.90;;;;;;4972888;28;20197;-75
2020/12/04 00:51:58;;;;;;;33.55;30.85;;;4.00;82.30;;;;;;4974420;28;20215;-75
2020/12/04 00:54:24;;;;;;;34.38;31.55;;;4.00;80.90;;;;;;4972465;28;20202;-75
2020/12/04 00:56:50;;;;;;;34.92;32.03;;;3.90;78.00;;;;;;4965101;28;20720;-75
2020/12/04 00:59:17;;;;;;;33.83;31.23;;;3.90;76.90;;;;;;4973584;28;20205;-75
2020/12/04 01:01:43;;;;;;;33.92;31.38;;;3.90;74.90;;;;;;4970581;28;20701;-76
2020/12/04 01:04:09;;;;;;;33.15;30.58;;;3.90;74.40;;;;;;4972411;28;20200;-76
2020/12/04 01:06:37;;;;;;;33.78;31.08;;;3.80;75.20;;;;;;4969954;28;20233;-75
2020/12/04 01:09:04;;;;;;;34.40;31.90;;;3.90;74.90;;;;;;4972558;28;20580;-76
2020/12/04 01:11:31;;;;;;;34.78;31.90;;;4.00;73.10;;;;;;4964660;28;20672;-76
2020/12/04 01:13:58;;;;;;;35.22;32.28;;;4.00;73.80;;;;;;4966151;28;20211;-76
2020/12/04 01:16:25;;;;;;;34.92;32.20;;;4.00;80.80;;;;;;4964841;28;20230;-75
2020/12/04 01:18:51;;;;;;;34.80;32.03;;;4.00;78.70;;;;;;4965987;28;20688;-75
2020/12/04 01:21:17;;;;;;;33.83;31.00;;;4.00;77.20;;;;;;4966201;28;20215;-75
2020/12/04 01:23:45;;;;;;;34.95;32.15;;;4.00;78.10;;;;;;4970147;28;20801;-75
2020/12/04 01:26:11;;;;;;;34.03;31.45;;;4.00;75.50;;;;;;4964709;28;20220;-77
2020/12/04 01:28:37;;;;;;;33.72;30.92;;;4.00;76.40;;;;;;4959247;28;20222;-75
2020/12/04 01:31:04;;;;;;;34.33;31.50;;;3.90;76.20;;;;;;4972229;28;20729;-74
2020/12/04 01:33:32;;;;;;;35.28;32.28;;;3.80;76.00;;;;;;4959114;28;20200;-75
2020/12/04 01:35:58;;;;;;;34.83;32.05;;;3.90;75.40;;;;;;4963835;28;20250;-75
2020/12/04 01:38:25;;;;;;;35.38;32.40;;;4.00;75.20;;;;;;4962472;28;20206;-74
2020/12/04 01:40:57;;;;;;;35.92;33.03;;;3.90;77.70;;;;;;4969290;28;20594;-75
2020/12/04 01:43:24;;;;;;;34.67;31.85;;;3.90;76.50;;;;;;4962463;28;20192;-74
2020/12/04 01:45:50;;;;;;;34.88;31.98;;;3.90;75.70;;;;;;4965569;28;20222;-75
2020/12/04 01:48:17;;;;;;;34.40;31.60;;;4.10;74.90;;;;;;4968731;28;20205;-75
2020/12/04 01:50:43;;;;;;;36.30;33.47;;;4.10;75.50;;;;;;4971608;28;20561;-75
2020/12/04 01:53:09;;;;;;;36.15;33.13;;;3.90;75.70;;;;;;4967482;28;20670;-75
2020/12/04 01:55:36;;;;;;;34.22;31.52;;;3.90;75.60;;;;;;4975702;28;20196;-75
2020/12/04 01:58:04;;;;;;;36.40;33.42;;;3.90;75.10;;;;;;4973959;28;20203;-75
2020/12/04 02:00:31;;;;;;;34.70;32.10;;;3.80;74.90;;;;;;4964199;28;20317;-75
2020/12/04 02:02:57;;;;;;;35.38;32.45;;;3.90;74.90;;;;;;4957448;28;20738;-75
2020/12/04 02:05:24;;;;;;;34.42;31.63;;;3.80;75.00;;;;;;4973212;28;20285;-75
2020/12/04 02:08:00;;;;;;;36.65;33.60;;;3.70;75.10;;;;;;4974976;28;20257;-75
2020/12/04 02:10:31;;;;;;;35.05;32.30;;;3.70;75.50;;;;;;4965093;28;20563;-75
2020/12/04 02:12:58;;;;;;;34.47;31.52;;;3.60;75.70;;;;;;4967186;28;20200;-75
2020/12/04 02:15:25;;;;;;;34.13;31.17;;;3.60;76.10;;;;;;4961581;28;20282;-75
2020/12/04 02:17:55;;;;;;;36.60;33.50;;;3.60;76.30;;;;;;4966435;28;20509;-75
2020/12/04 02:20:22;;;;;;;36.90;33.10;;;3.50;76.10;;;;;;4972437;28;20648;-78
2020/12/04 02:22:49;;;;;;;35.28;32.38;;;3.60;76.00;;;;;;4973995;28;20233;-78
2020/12/04 02:25:16;;;;;;;34.85;32.05;;;3.50;76.20;;;;;;4974231;28;20199;-77
2020/12/04 02:27:46;;;;;;;36.90;33.72;;;3.60;76.00;;;;;;4975351;28;20199;-75
2020/12/04 02:30:17;;;;;;;34.53;31.73;;;3.60;75.80;;;;;;4973770;28;20200;-75
2020/12/04 02:32:44;;;;;;;36.90;33.60;;;3.50;76.10;;;;;;4964564;28;20204;-75
2020/12/04 02:35:10;;;;;;;36.00;32.90;;;3.50;76.20;;;;;;4974397;28;20383;-75
2020/12/04 02:37:37;;;;;;;35.78;32.95;;;3.50;76.10;;;;;;4975188;28;20219;-75
2020/12/04 02:40:04;;;;;;;36.08;32.80;;;3.60;76.00;;;;;;4968442;28;20195;-75
2020/12/04 02:42:31;;;;;;;35.78;32.92;;;3.60;76.70;;;;;;4974103;28;20662;-75
2020/12/04 02:44:57;;;;;;;35.78;32.80;;;3.70;75.90;;;;;;4973351;28;20217;-75
2020/12/04 02:47:25;;;;;;;36.63;33.53;;;3.70;75.90;;;;;;4973032;28;20223;-75
2020/12/04 02:49:51;;;;;;;35.33;32.35;;;3.60;76.10;;;;;;4960067;28;20204;-75
2020/12/04 02:52:20;;;;;;;34.13;31.30;;;3.70;76.20;;;;;;4967269;28;20195;-75
2020/12/04 02:54:47;;;;;;;37.40;34.15;;;3.70;77.50;;;;;;4967747;28;20206;-75
2020/12/04 02:57:14;;;;;;;35.42;32.22;;;3.60;77.20;;;;;;4972763;28;20230;-75
2020/12/04 02:59:40;;;;;;;36.00;33.08;;;3.60;76.90;;;;;;4973499;28;20202;-75
2020/12/04 03:02:07;;;;;;;35.15;31.90;;;3.60;77.00;;;;;;4973511;28;20223;-75
2020/12/04 03:04:33;;;;;;;33.20;30.70;;;3.60;78.10;;;;;;4971977;28;20192;-75
2020/12/04 03:07:00;;;;;;;37.53;34.22;;;3.50;77.70;;;;;;4974243;28;20827;-75
2020/12/04 03:09:26;;;;;;;34.53;31.58;;;3.50;77.70;;;;;;4970980;28;20209;-75
2020/12/04 03:11:54;;;;;;;36.50;33.30;;;3.50;77.60;;;;;;4958160;28;20200;-75
2020/12/04 03:14:21;;;;;;;36.30;33.17;;;3.60;77.20;;;;;;4973109;28;20661;-76
2020/12/04 03:16:48;;;;;;;36.70;32.53;;;3.50;78.10;;;;;;4971855;28;20211;-75
2020/12/04 03:19:14;;;;;;;36.72;33.50;;;3.50;84.70;;;;;;4964385;28;20195;-75
2020/12/04 03:21:41;;;;;;;37.95;34.65;;;3.50;85.90;;;;;;4968159;28;20238;-75
2020/12/04 03:24:07;;;;;;;36.75;33.50;;;3.50;82.30;;;;;;4966514;28;20199;-75
2020/12/04 03:26:33;;;;;;;32.30;29.70;;;3.50;85.80;;;;;;4962753;28;20216;-75
2020/12/04 03:29:00;;;;;;;35.85;32.50;;;3.50;82.50;;;;;;4966757;28;20247;-75
2020/12/04 03:31:27;;;;;;;37.50;34.10;;;3.70;78.70;;;;;;4968536;28;20650;-75
2020/12/04 03:33:53;;;;;;;35.38;32.42;;;3.70;77.90;;;;;;4967143;28;21785;-78
2020/12/04 03:36:20;;;;;;;35.80;32.85;;;3.60;77.40;;;;;;4973132;28;20231;-77
2020/12/04 03:38:46;;;;;;;36.20;33.03;;;3.50;78.20;;;;;;4967062;28;20283;-77
2020/12/04 03:41:13;;;;;;;36.97;33.97;;;3.50;78.70;;;;;;4973078;28;20211;-75
2020/12/04 03:43:40;;;;;;;36.88;33.67;;;3.70;77.70;;;;;;4981543;28;20210;-76
2020/12/04 03:46:07;;;;;;;36.40;33.28;;;3.70;77.20;;;;;;4971751;28;20219;-76
2020/12/04 03:48:35;;;;;;;37.83;34.50;;;3.70;77.30;;;;;;4972123;28;20658;-76
2020/12/04 03:51:01;;;;;;;50.85;36.63;;;3.70;78.60;;;;;;4971378;28;20195;-76
2020/12/04 03:53:27;;;;;;;37.03;33.42;;;3.80;78.80;;;;;;4971491;28;20207;-76
2020/12/04 03:55:54;;;;;;;38.63;35.28;;;3.80;81.20;;;;;;4965670;28;20226;-76
2020/12/04 03:58:20;;;;;;;36.78;33.35;;;3.70;81.20;;;;;;4972732;28;20195;-76
2020/12/04 04:00:46;;;;;;;37.55;34.10;;;3.70;80.10;;;;;;4964487;28;20215;-76
2020/12/04 04:03:13;;;;;;;37.10;33.80;;;3.70;80.20;;;;;;4973075;28;20658;-76
2020/12/04 04:05:40;;;;;;;35.78;32.78;;;3.70;79.60;;;;;;4971041;28;20219;-76
2020/12/04 04:08:06;;;;;;;36.47;33.67;;;3.70;79.00;;;;;;4985817;23;20597;-76
2020/12/04 04:10:33;;;;;;;37.75;34.53;;;3.70;78.50;;;;;;4996962;28;20556;-76
2020/12/04 04:12:59;;;;;;;37.60;34.53;;;3.80;78.10;;;;;;5012476;28;20203;-76
2020/12/04 04:15:26;;;;;;;35.85;32.75;;;3.80;77.80;;;;;;4994733;28;20621;-76
2020/12/04 04:17:58;;;;;;;35.88;33.20;;;3.90;77.80;;;;;;4986267;28;20242;-76
2020/12/04 04:20:25;;;;;;;35.70;32.95;;;3.80;77.80;;;;;;4995103;28;20717;-76
2020/12/04 04:22:52;;;;;;;35.75;32.85;;;3.80;78.70;;;;;;5011010;28;20244;-76
2020/12/04 04:25:19;;;;;;;36.35;33.45;;;3.80;78.60;;;;;;4999469;28;20199;-76
2020/12/04 04:27:45;;;;;;;35.90;33.05;;;3.80;79.10;;;;;;5006526;28;20198;-76
2020/12/04 04:30:12;;;;;;;36.20;33.00;;;3.90;78.20;;;;;;5000201;28;20210;-76
2020/12/04 04:32:38;;;;;;;35.78;32.75;;;3.90;78.00;;;;;;4998791;28;20198;-76
2020/12/04 04:35:05;;;;;;;35.83;32.83;;;4.00;77.50;;;;;;4998919;28;20582;-76
2020/12/04 04:37:32;;;;;;;37.67;34.35;;;4.00;76.80;;;;;;4995441;28;20218;-76
2020/12/04 04:39:59;;;;;;;35.65;32.55;;;3.90;77.80;;;;;;4988298;28;20202;-76
2020/12/04 04:42:26;;;;;;;514.38;84.75;;;3.80;78.30;;;;;;5006140;28;20226;-75
2020/12/04 04:44:52;;;;;;;37.53;34.33;;;3.80;81.20;;;;;;5000703;28;20199;-74
2020/12/04 04:47:19;;;;;;;35.97;33.00;;;3.90;80.90;;;;;;4988631;28;20223;-77
2020/12/04 04:49:48;;;;;;;34.17;31.42;;;4.10;77.90;;;;;;4998046;28;20200;-76
2020/12/04 04:52:16;;;;;;;34.28;31.20;;;4.10;77.30;;;;;;5001929;28;20563;-75
2020/12/04 04:54:44;;;;;;;37.65;34.75;;;4.10;77.10;;;;;;5004561;28;20495;-80
2020/12/04 04:57:13;;;;;;;37.92;34.85;;;4.10;77.50;;;;;;5007891;28;20476;-80
2020/12/04 04:59:39;;;;;;;34.83;31.92;;;4.20;78.90;;;;;;5000190;28;20205;-79
2020/12/04 05:02:10;;;;;;;35.70;32.90;;;4.10;78.50;;;;;;5011515;28;20222;-80
2020/12/04 05:04:53;;;;;;;36.03;32.92;;;3.90;78.50;;;;;;5004959;28;20199;-79
2020/12/04 05:07:27;;;;;;;34.97;32.22;;;4.00;78.40;;;;;;5010458;28;20257;-79
2020/12/04 05:09:53;;;;;;;35.15;32.55;;;3.90;78.30;;;;;;5002171;28;20198;-79
2020/12/04 05:12:21;;;;;;;35.35;32.47;;;4.00;78.50;;;;;;5017784;28;20265;-79
2020/12/04 05:14:47;;;;;;;33.97;31.13;;;4.00;78.90;;;;;;4997958;28;20203;-79
2020/12/04 05:17:13;;;;;;;36.20;31.20;;;4.10;77.80;;;;;;4999139;28;20215;-79
2020/12/04 05:19:42;;;;;;;45.78;33.50;;;4.10;77.30;;;;;;5005172;28;20206;-77
2020/12/04 05:22:13;;;;;;;33.13;30.52;;;4.10;77.30;;;;;;4999305;28;20622;-81
2020/12/04 05:24:41;;;;;;;33.25;30.70;;;4.00;77.80;;;;;;5000232;28;20306;-81
2020/12/04 05:27:25;;;;;;;33.38;30.67;;;4.10;77.80;;;;;;5009640;28;20218;-82
2020/12/04 05:29:54;;;;;;;34.05;31.10;;;4.10;77.70;;;;;;5005508;28;20218;-78
2020/12/04 05:32:21;;;;;;;34.25;31.30;;;4.10;78.60;;;;;;5003027;28;20194;-79
2020/12/04 05:34:47;;;;;;;33.50;31.00;;;4.10;80.00;;;;;;5008772;28;20248;-78
2020/12/04 05:37:17;;;;;;;34.28;31.27;;;4.10;79.00;;;;;;5009095;28;20305;-78
2020/12/04 05:39:45;;;;;;;36.17;33.28;;;4.10;79.10;;;;;;4998862;28;20202;-80
2020/12/04 05:42:11;;;;;;;35.15;32.13;;;4.00;80.10;;;;;;5012593;28;20215;-78
2020/12/04 05:44:53;;;;;;;32.80;30.20;;;4.00;78.90;;;;;;5006691;28;20195;-80
2020/12/04 05:47:21;;;;;;;35.28;32.53;;;4.10;80.30;;;;;;5005648;28;20225;-81
2020/12/04 05:49:48;;;;;;;36.03;33.22;;;4.20;78.50;;;;;;5001445;28;20214;-80
2020/12/04 05:52:14;;;;;;;34.50;31.80;;;4.20;77.60;;;;;;5010332;28;20504;-82
2020/12/04 05:54:42;;;;;;;34.60;31.77;;;4.30;77.90;;;;;;5009591;28;20564;-80
2020/12/04 05:57:10;;;;;;;34.08;31.35;;;4.30;77.50;;;;;;5000885;28;20223;-77
2020/12/04 05:59:40;;;;;;;33.55;30.75;;;4.20;78.90;;;;;;4995961;28;20270;-78
2020/12/04 06:02:13;;;;;;;33.45;30.70;;;4.20;83.50;;;;;;4999112;28;20722;-77
2020/12/04 06:04:41;;;;;;;31.45;29.00;;;4.30;80.60;;;;;;4994256;28;20741;-78
2020/12/04 06:07:07;;;;;;;34.10;31.30;;;4.30;79.60;;;;;;5004085;28;20224;-75
2020/12/04 06:09:34;;;;;;;32.90;30.25;;;4.30;79.80;;;;;;5004370;28;20206;-75
2020/12/04 06:12:00;;;;;;;31.67;29.33;;;4.40;77.60;;;;;;5006440;28;20296;-75
2020/12/04 06:14:26;;;;;;;33.05;30.65;;;4.40;78.50;;;;;;5009816;28;20198;-79
2020/12/04 06:17:12;;;;;;;32.63;30.13;;;4.40;77.90;;;;;;5004708;28;20224;-77
2020/12/04 06:19:40;;;;;;;32.17;29.98;;;4.40;76.60;;;;;;5006535;28;20198;-79
2020/12/04 06:22:08;;;;;;;31.60;29.10;;;4.30;77.10;;;;;;5001295;28;20367;-82
2020/12/04 06:25:01;;;;;;;33.80;31.30;;;4.20;77.30;;;;;;4997258;28;20195;-77
2020/12/04 06:27:43;;;;;;;30.42;28.33;;;4.20;76.60;;;;;;5000865;28;20271;-76
2020/12/04 06:30:10;;;;;;;31.02;28.63;;;4.30;75.60;;;;;;5006730;28;20203;-77
2020/12/04 06:32:41;;;;;;;31.63;29.27;;;4.30;75.10;;;;;;5002024;28;20194;-76
2020/12/04 06:35:08;;;;;;;31.63;29.33;;;4.30;75.40;;;;;;5015035;28;20788;-76
2020/12/04 06:37:38;;;;;;;31.98;29.60;;;4.40;75.20;;;;;;5014864;28;20220;-78
2020/12/04 06:40:24;;;;;;;33.85;31.25;;;4.50;75.60;;;;;;5013326;28;20195;-76
2020/12/04 06:42:51;;;;;;;32.08;29.58;;;4.40;76.20;;;;;;4996391;28;20194;-78
2020/12/04 06:45:19;;;;;;;31.42;29.13;;;4.30;75.20;;;;;;4995707;28;20234;-78
2020/12/04 06:48:10;;;;;;;32.13;29.73;;;4.40;74.20;;;;;;4995746;28;20294;-78
2020/12/04 06:50:41;;;;;;;33.25;30.83;;;4.40;73.60;;;;;;4996452;28;20256;-77
2020/12/04 06:53:09;;;;;;;33.50;30.80;;;4.50;73.60;;;;;;4999194;28;20205;-80
2020/12/04 06:55:36;;;;;;;32.38;29.88;;;4.50;73.10;;;;;;5004788;28;20205;-81
2020/12/04 06:58:02;;;;;;;33.58;30.88;;;4.50;72.90;;;;;;5005648;28;20201;-80
2020/12/04 07:00:30;;;;;;;33.50;31.00;;;4.60;72.60;;;;;;5003123;28;20199;-80
2020/12/04 07:02:59;;;;;;;32.03;29.52;;;4.60;72.50;;;;;;5002032;28;20198;-80
2020/12/04 07:05:26;;;;;;;33.72;31.23;;;4.60;72.70;;;;;;4999410;28;20193;-80
2020/12/04 07:08:02;;;;;;;34.33;31.52;;;4.60;72.90;;;;;;4996521;28;20546;-75
2020/12/04 07:10:31;;;;;;;35.78;32.88;;;4.70;73.40;;;;;;4986962;28;20466;-73
2020/12/04 07:13:07;;;;;;;34.92;32.13;;;4.80;73.40;;;;;;4994924;28;20219;-73
2020/12/04 07:15:34;;;;;;;32.53;30.10;;;4.70;72.90;;;;;;4995066;28;20202;-73
2020/12/04 07:18:01;;;;;;;34.55;31.75;;;4.60;72.90;;;;;;4994951;28;21527;-74
2020/12/04 07:20:34;;;;;;;36.30;33.40;;;4.60;72.90;;;;;;4993754;28;20466;-74
2020/12/04 07:23:05;;;;;;;36.35;33.35;;;4.60;73.00;;;;;;4995079;28;20490;-78
2020/12/04 07:25:32;;;;;;;34.60;31.98;;;4.50;73.30;;;;;;4996069;28;20194;-76
2020/12/04 07:27:58;;;;;;;34.83;31.92;;;4.40;72.80;;;;;;4995095;28;20207;-76
2020/12/04 07:30:25;;;;;;;36.30;33.40;;;4.40;72.90;;;;;;4994659;28;20286;-76
2020/12/04 07:32:53;;;;;;;34.95;32.17;;;4.40;73.00;;;;;;4994632;28;20195;-76
2020/12/04 07:35:21;;;;;;;33.28;30.58;;;4.50;72.90;;;;;;4993873;28;20199;-75
2020/12/04 07:37:48;;;;;;;33.97;31.27;;;4.50;74.60;;;;;;4993911;28;20582;-77
2020/12/04 07:40:15;;;;;;;36.28;33.20;;;4.50;73.60;;;;;;4994144;28;20277;-77
2020/12/04 07:42:42;;;;;;;37.45;34.45;;;4.70;73.00;;;;;;4994050;28;20466;-77
2020/12/04 07:45:14;;;;;;;36.25;32.92;;;4.80;75.60;;;;;;4994082;28;20310;-77
2020/12/04 07:47:42;;;;;;;36.22;33.22;;;4.80;74.00;;;;;;4997177;28;20594;-78
2020/12/04 07:50:10;;;;;;;34.58;31.63;;;4.80;75.00;;;;;;4996534;28;20199;-77
2020/12/04 07:52:49;;;;;;;34.97;32.00;;;4.80;75.00;;;;;;4994589;28;20269;-77
2020/12/04 07:55:18;;;;;;;35.72;32.83;;;4.80;73.40;;;;;;4993029;28;20273;-77
2020/12/04 07:58:01;;;;;;;35.15;32.35;;;4.80;73.20;;;;;;4993537;28;20194;-77
2020/12/04 08:00:30;;;;;;;37.97;34.75;;;4.80;75.60;;;;;;4994113;28;20209;-77
2020/12/04 08:03:02;;;;;;;35.78;32.85;;;4.90;73.60;;;;;;4993695;28;20212;-77
2020/12/04 08:05:28;;;;;;;36.30;33.28;;;5.00;72.40;;;;;;4994246;28;20202;-77
2020/12/04 08:07:55;;;;;;;36.08;32.83;;;5.00;72.60;;;;;;4994218;28;20206;-77
2020/12/04 08:10:22;;;;;;;34.50;31.40;;;5.00;73.30;;;;;;4994286;28;20220;-77
2020/12/04 08:12:50;;;;;;;37.33;34.30;;;4.90;75.40;;;;;;4993754;28;20198;-77
2020/12/04 08:15:18;;;;;;;35.08;32.15;;;5.00;74.20;;;;;;4976449;28;20203;-77
2020/12/04 08:17:45;;;;;;;37.30;34.28;;;5.00;72.70;;;;;;4993893;28;20672;-77
2020/12/04 08:20:16;;;;;;;34.72;31.73;;;5.00;72.80;;;;;;4994018;28;20199;-77
2020/12/04 08:22:47;;;;;;;38.22;34.85;;;5.10;75.00;;;;;;4993700;28;20237;-77
2020/12/04 08:25:14;;;;;;;36.67;33.67;;;5.10;76.00;;;;;;4993865;28;20288;-77
2020/12/04 08:27:43;;;;;;;35.92;32.70;;;5.10;73.60;;;;;;4993317;28;20251;-77
2020/12/04 08:30:15;;;;;;;35.58;32.63;;;5.20;73.20;;;;;;4993782;28;20246;-77
2020/12/04 08:32:43;;;;;;;36.25;33.08;;;5.30;72.80;;;;;;4994001;28;20199;-77
2020/12/04 08:35:14;;;;;;;37.03;33.55;;;5.30;72.70;;;;;;4993828;28;20730;-77
2020/12/04 08:37:40;;;;;;;36.97;33.70;;;5.40;71.80;;;;;;4994331;28;20231;-77
2020/12/04 08:40:23;;;;;;;38.17;34.58;;;5.40;72.90;;;;;;4993783;28;20204;-77
2020/12/04 08:42:50;;;;;;;37.83;34.33;;;5.30;73.40;;;;;;4993431;28;20423;-77
2020/12/04 08:45:17;;;;;;;38.35;35.28;;;5.30;74.00;;;;;;4993628;28;20230;-77
2020/12/04 08:47:45;;;;;;;39.40;36.10;;;5.40;73.50;;;;;;5003520;28;20204;-77
2020/12/04 08:50:18;;;;;;;37.00;33.75;;;5.40;74.10;;;;;;4997660;28;20202;-77
2020/12/04 08:52:48;;;;;;;35.45;32.45;;;5.50;73.90;;;;;;4993711;28;20279;-77
2020/12/04 08:55:16;;;;;;;35.92;33.10;;;5.70;72.40;;;;;;4994164;28;20254;-77
2020/12/04 08:57:45;;;;;;;38.08;34.72;;;5.70;71.30;;;;;;4993935;28;20197;-77
2020/12/04 09:00:14;;;;;;;36.58;33.42;;;5.70;71.10;;;;;;4993560;28;20263;-78
2020/12/04 09:02:41;;;;;;;38.83;35.42;;;5.80;71.70;;;;;;4993505;28;20217;-78
2020/12/04 09:05:10;;;;;;;35.25;32.17;;;5.90;73.90;;;;;;4993677;28;20205;-78
2020/12/04 09:07:38;;;;;;;36.38;32.85;;;6.00;77.00;;;;;;4992301;28;20251;-78
2020/12/04 09:10:06;;;;;;;37.20;33.75;;;6.10;70.70;;;;;;4993684;28;20212;-78
2020/12/04 09:12:32;;;;;;;38.10;34.90;;;6.10;69.80;;;;;;4993637;28;20197;-78
2020/12/04 09:14:59;;;;;;;37.42;34.22;;;6.10;69.70;;;;;;4993538;28;20201;-78
2020/12/04 09:17:25;;;;;;;38.17;34.63;;;6.10;69.60;;;;;;4993075;28;20216;-77
2020/12/04 09:19:52;;;;;;;38.90;34.78;;;6.20;70.60;;;;;;4993541;28;20211;-77
2020/12/04 09:22:19;;;;;;;36.95;33.55;;;6.20;71.60;;;;;;4993069;28;20268;-77
2020/12/04 09:24:45;;;;;;;37.78;34.60;;;6.30;71.10;;;;;;4992991;28;20689;-77
2020/12/04 09:27:11;;;;;;;38.75;35.15;;;6.40;70.40;;;;;;4992544;28;20630;-77
2020/12/04 09:29:38;;;;;;;37.00;33.83;;;6.50;68.60;;;;;;4993161;28;20199;-77
2020/12/04 09:32:10;;;;;;;37.08;33.58;;;6.40;68.40;;;;;;4993435;28;20198;-77
2020/12/04 09:34:37;;;;;;;38.63;34.92;;;6.40;68.30;;;;;;4993303;28;20201;-77
2020/12/04 09:37:19;;;;;;;35.47;32.75;;;6.30;68.20;;;;;;4992744;28;20214;-77
2020/12/04 09:39:46;;;;;;;39.10;36.17;;;6.20;68.40;;;;;;4993169;28;20200;-77
2020/12/04 09:42:14;;;;;;;37.75;34.67;;;6.20;69.30;;;;;;4993147;28;20692;-77
2020/12/04 09:44:41;;;;;;;37.22;33.70;;;6.20;68.80;;;;;;4993260;28;20205;-77
2020/12/04 09:47:09;;;;;;;36.95;33.80;;;6.30;68.00;;;;;;4992817;28;20301;-77
2020/12/04 09:49:37;;;;;;;35.53;32.72;;;6.30;67.80;;;;;;4993741;28;20229;-78
2020/12/04 09:52:05;;;;;;;36.80;33.55;;;6.30;67.90;;;;;;4993496;28;20198;-78
2020/12/04 09:54:35;;;;;;;37.38;34.25;;;6.20;67.90;;;;;;4993052;28;20195;-77
2020/12/04 09:57:03;;;;;;;36.30;33.15;;;6.30;67.90;;;;;;4992353;28;20227;-78
2020/12/04 09:59:29;;;;;;;35.85;32.65;;;6.30;67.50;;;;;;4992987;28;20563;-78
2020/12/04 10:01:55;;;;;;;35.67;32.70;;;6.30;67.60;;;;;;4993223;28;20580;-77
2020/12/04 10:04:24;;;;;;;35.60;32.80;;;6.30;72.80;;;;;;4992548;28;20202;-77
2020/12/04 10:06:51;;;;;;;35.80;32.90;;;6.30;71.10;;;;;;4993008;28;20222;-77
2020/12/04 10:09:17;;;;;;;37.38;34.20;;;6.50;70.20;;;;;;4993145;28;20251;-77
2020/12/04 10:11:44;;;;;;;35.67;32.58;;;6.60;68.40;;;;;;4992896;28;20288;-77
2020/12/04 10:14:10;;;;;;;37.17;34.10;;;6.70;67.50;;;;;;4992908;28;20197;-77
2020/12/04 10:16:37;;;;;;;37.38;34.10;;;6.80;67.10;;;;;;4993015;28;20378;-77
2020/12/04 10:19:04;;;;;;;35.08;32.47;;;6.80;70.80;;;;;;4995012;28;20659;-77
2020/12/04 10:21:35;;;;;;;36.78;33.78;;;6.70;69.10;;;;;;4996269;28;20313;-77
2020/12/04 10:24:01;;;;;;;34.53;31.73;;;6.80;68.10;;;;;;4996475;28;20210;-77
2020/12/04 10:26:28;;;;;;;33.88;31.10;;;6.90;67.70;;;;;;4996642;28;20310;-77
2020/12/04 10:28:54;;;;;;;35.65;32.30;;;7.00;67.00;;;;;;4996461;28;20668;-77
2020/12/04 10:31:21;;;;;;;38.28;34.88;;;7.00;68.50;;;;;;4996840;28;20564;-77
2020/12/04 10:33:51;;;;;;;36.13;33.35;;;6.80;70.10;;;;;;4996008;28;20317;-78
2020/12/04 10:36:17;;;;;;;36.38;33.55;;;6.80;67.60;;;;;;4996033;28;20745;-78
2020/12/04 10:38:44;;;;;;;35.50;32.70;;;6.80;68.10;;;;;;4995856;28;20628;-78
2020/12/04 10:41:11;;;;;;;34.20;31.70;;;6.80;67.60;;;;;;4996041;28;20215;-78
2020/12/04 10:43:37;;;;;;;34.70;32.10;;;6.60;67.80;;;;;;4996098;28;20201;-77
2020/12/04 10:46:03;;;;;;;34.40;31.63;;;6.60;68.20;;;;;;4995471;28;20214;-77
2020/12/04 10:48:30;;;;;;;35.35;32.58;;;6.70;67.90;;;;;;4995877;28;20206;-77
2020/12/04 10:50:56;;;;;;;34.17;31.30;;;6.60;67.50;;;;;;4995999;28;20662;-77
2020/12/04 10:53:26;;;;;;;35.70;33.00;;;6.70;68.30;;;;;;4995818;28;20278;-77
2020/12/04 10:55:53;;;;;;;36.80;33.70;;;6.70;69.60;;;;;;4995276;28;20207;-77
2020/12/04 10:58:19;;;;;;;36.42;33.03;;;6.70;74.30;;;;;;4996286;28;20199;-77
2020/12/04 11:00:48;;;;;;;35.55;32.95;;;6.80;69.40;;;;;;4997566;28;20203;-77
2020/12/04 11:03:21;;;;;;;35.47;32.70;;;6.60;67.00;;;;;;4980588;28;20270;-77
2020/12/04 11:05:47;;;;;;;38.08;35.17;;;6.50;67.10;;;;;;4994209;28;20220;-77
2020/12/04 11:08:14;;;;;;;34.47;31.80;;;6.50;68.30;;;;;;4995440;28;20238;-77
2020/12/04 11:10:42;;;;;;;35.05;32.40;;;6.60;68.30;;;;;;4995302;28;20195;-77
2020/12/04 11:13:09;;;;;;;35.20;32.40;;;6.80;67.30;;;;;;4995452;28;20236;-78
2020/12/04 11:15:35;;;;;;;33.83;31.35;;;6.90;66.80;;;;;;4995329;28;20221;-77
2020/12/04 11:18:02;;;;;;;35.78;32.58;;;6.90;66.70;;;;;;4995430;28;20241;-77
2020/12/04 11:20:29;;;;;;;36.38;33.63;;;6.90;66.80;;;;;;4995075;28;20285;-77
2020/12/04 11:22:55;;;;;;;35.75;32.95;;;6.80;70.20;;;;;;4994929;28;20239;-77
2020/12/04 11:25:22;;;;;;;35.22;32.42;;;6.70;67.10;;;;;;4995122;28;20203;-77
2020/12/04 11:27:49;;;;;;;35.13;32.25;;;6.70;66.90;;;;;;4994691;28;20648;-77
2020/12/04 11:30:19;;;;;;;36.70;33.40;;;6.60;68.60;;;;;;4994215;28;20201;-77
2020/12/04 11:32:46;;;;;;;37.95;34.80;;;6.70;68.60;;;;;;4995056;28;20205;-77
2020/12/04 11:35:14;;;;;;;36.10;32.97;;;6.90;67.80;;;;;;4994749;28;20199;-77
2020/12/04 11:37:43;;;;;;;34.70;32.15;;;6.90;69.30;;;;;;4994829;28;20218;-77
2020/12/04 11:40:10;;;;;;;33.53;31.02;;;6.90;70.90;;;;;;4994906;28;20207;-77
2020/12/04 11:42:40;;;;;;;35.63;32.50;;;7.00;67.60;;;;;;4994816;28;20225;-77
2020/12/04 11:45:07;;;;;;;33.40;30.55;;;6.90;66.50;;;;;;4994681;28;20191;-77
2020/12/04 11:47:37;;;;;;;40.85;37.00;;;6.90;68.00;;;;;;4994658;28;20298;-78
2020/12/04 11:50:05;;;;;;;35.47;32.58;;;6.90;71.30;;;;;;4994710;28;20566;-77
2020/12/04 11:52:31;;;;;;;35.25;32.55;;;6.90;72.70;;;;;;4994410;28;20198;-77
2020/12/04 11:54:57;;;;;;;34.88;32.28;;;7.10;70.50;;;;;;4994799;28;20202;-77
2020/12/04 11:57:24;;;;;;;35.53;32.72;;;7.10;69.10;;;;;;4994493;28;20229;-77
2020/12/04 11:59:50;;;;;;;35.08;32.38;;;7.10;68.30;;;;;;4994186;28;20659;-77
2020/12/04 12:02:17;;;;;;;38.17;34.88;;;7.00;67.50;;;;;;4994608;28;20225;-77
2020/12/04 12:04:44;;;;;;;40.58;36.45;;;7.10;67.20;;;;;;4994436;28;20203;-78
2020/12/04 12:07:10;;;;;;;37.78;34.58;;;6.90;67.10;;;;;;4994605;28;20309;-77
2020/12/04 12:09:37;;;;;;;37.65;34.40;;;6.90;67.40;;;;;;4994353;28;20203;-78
2020/12/04 12:12:03;;;;;;;37.25;34.08;;;6.90;67.80;;;;;;5009833;28;20191;-78
2020/12/04 12:14:30;;;;;;;39.60;36.40;;;6.90;69.40;;;;;;4994394;28;20187;-78
2020/12/04 12:16:56;;;;;;;36.22;33.03;;;6.90;68.60;;;;;;4993702;28;20210;-77
2020/12/04 12:19:23;;;;;;;36.85;33.60;;;6.90;68.00;;;;;;4994137;28;20561;-78
2020/12/04 12:21:50;;;;;;;37.83;33.97;;;6.80;70.50;;;;;;4993689;28;20221;-77
2020/12/04 12:24:16;;;;;;;36.28;33.50;;;6.70;67.80;;;;;;4994001;28;20203;-78
2020/12/04 12:26:43;;;;;;;36.60;33.55;;;6.60;67.20;;;;;;4993808;28;20214;-78
2020/12/04 12:29:09;;;;;;;37.22;34.20;;;6.70;67.20;;;;;;4994244;28;20202;-77
2020/12/04 12:31:36;;;;;;;35.88;32.67;;;6.60;67.70;;;;;;4994530;28;20627;-78
2020/12/04 12:34:02;;;;;;;35.35;32.50;;;6.70;67.70;;;;;;4994043;28;20214;-77
2020/12/04 12:36:28;;;;;;;36.00;33.25;;;6.70;67.40;;;;;;4993855;28;20225;-78
2020/12/04 12:38:57;;;;;;;36.03;33.05;;;6.80;69.60;;;;;;4993693;28;20255;-77